Time;durP1;ratioP1;P1;durP2;ratioP2;P2;SDS_P1;SDS_P2;PMS_P1;PMS_P2;Temp;Humidity;BMP_temperature;BMP_pressure;BME280_temperature;BME280_humidity;BME280_pressure;Samples;Min_cycle;Max_cycle;Signal;HPM_P1;HPM_P2
2021/12/19 00:00:17;;;;;;;28.23;12.60;;;;;;;;;;5038648;28;20802;-81
2021/12/19 00:03:00;;;;;;;18.53;10.80;;;;;;;;;;5038120;28;20304;-81
2021/12/19 00:08:41;;;;;;;20.20;11.03;;;;;;;;;;5032984;28;20205;-80
2021/12/19 00:11:08;;;;;;;22.00;11.17;;;;;;;;;;5037603;28;20724;-81
2021/12/19 00:13:36;;;;;;;22.43;11.07;;;;;;;;;;5036537;28;20210;-82
2021/12/19 00:16:03;;;;;;;18.07;10.43;;;;;;;;;;5035158;28;20619;-81
2021/12/19 00:18:30;;;;;;;18.93;10.37;;;;;;;;;;5036840;28;20239;-80
2021/12/19 00:20:58;;;;;;;17.97;9.67;;;;;;;;;;5037685;28;20241;-79
2021/12/19 00:23:25;;;;;;;17.00;9.83;;;;;;;;;;5037346;28;20222;-79
2021/12/19 00:25:53;;;;;;;19.87;9.80;;;;;;;;;;5037497;28;20217;-79
2021/12/19 00:28:20;;;;;;;17.90;9.50;;;;;;;;;;5036883;28;20225;-80
2021/12/19 00:30:47;;;;;;;17.10;9.77;;;;;;;;;;5036825;28;20230;-80
2021/12/19 00:33:14;;;;;;;19.77;10.60;;;;;;;;;;5037528;28;20210;-80
2021/12/19 00:35:41;;;;;;;17.63;9.70;;;;;;;;;;5036790;28;20245;-79
2021/12/19 00:38:09;;;;;;;19.37;10.37;;;;;;;;;;5036890;28;20230;-79
2021/12/19 00:40:38;;;;;;;18.60;10.10;;;;;;;;;;5036813;28;20238;-80
2021/12/19 00:43:07;;;;;;;17.63;10.10;;;;;;;;;;5037484;28;20242;-80
2021/12/19 00:45:36;;;;;;;17.20;9.80;;;;;;;;;;5037221;28;20234;-80
2021/12/19 00:48:05;;;;;;;21.47;9.83;;;;;;;;;;5037453;28;20636;-80
2021/12/19 00:50:33;;;;;;;17.63;9.70;;;;;;;;;;5036857;28;20608;-80
2021/12/19 00:53:00;;;;;;;16.03;9.83;;;;;;;;;;5037128;28;20219;-79
2021/12/19 00:55:28;;;;;;;17.80;8.57;;;;;;;;;;5037647;28;20714;-80
2021/12/19 00:57:56;;;;;;;17.23;9.67;;;;;;;;;;5038233;28;20603;-80
2021/12/19 01:00:25;;;;;;;15.40;9.23;;;;;;;;;;5037105;28;20701;-80
2021/12/19 01:02:54;;;;;;;18.60;10.10;;;;;;;;;;5037326;28;20211;-80
2021/12/19 01:05:21;;;;;;;18.63;9.43;;;;;;;;;;5036861;28;20268;-80
2021/12/19 01:07:48;;;;;;;17.77;9.47;;;;;;;;;;5037234;28;20224;-80
2021/12/19 01:10:15;;;;;;;18.10;9.87;;;;;;;;;;5036724;28;21021;-80
2021/12/19 01:12:44;;;;;;;19.70;9.80;;;;;;;;;;5036710;28;20699;-80
2021/12/19 01:15:12;;;;;;;20.27;9.63;;;;;;;;;;5036556;28;20241;-79
2021/12/19 01:17:40;;;;;;;15.00;8.53;;;;;;;;;;5039546;28;20226;-80
2021/12/19 01:20:09;;;;;;;17.57;9.80;;;;;;;;;;5039813;28;20311;-80
2021/12/19 01:22:36;;;;;;;15.70;9.53;;;;;;;;;;5040867;28;20202;-79
2021/12/19 01:25:03;;;;;;;19.13;9.90;;;;;;;;;;5040429;28;20237;-80
2021/12/19 01:27:30;;;;;;;18.30;9.60;;;;;;;;;;5040477;28;20211;-79
2021/12/19 01:29:59;;;;;;;18.20;9.57;;;;;;;;;;5039843;28;20246;-80
2021/12/19 01:32:26;;;;;;;14.93;9.40;;;;;;;;;;5040115;28;20690;-80
2021/12/19 01:34:53;;;;;;;14.83;9.13;;;;;;;;;;5039083;28;20241;-79
2021/12/19 01:37:20;;;;;;;14.37;8.70;;;;;;;;;;5040926;28;20218;-80
2021/12/19 01:39:47;;;;;;;16.97;9.77;;;;;;;;;;5039973;28;20242;-80
2021/12/19 01:42:14;;;;;;;21.27;9.73;;;;;;;;;;5040042;28;20209;-80
2021/12/19 01:44:44;;;;;;;20.37;10.43;;;;;;;;;;5039990;28;20739;-80
2021/12/19 01:47:12;;;;;;;19.27;9.67;;;;;;;;;;5040640;28;20681;-80
2021/12/19 01:49:39;;;;;;;18.93;9.60;;;;;;;;;;5040513;28;20255;-80
2021/12/19 01:52:07;;;;;;;21.43;11.10;;;;;;;;;;5039778;28;20210;-80
2021/12/19 01:54:34;;;;;;;16.10;9.20;;;;;;;;;;5040278;28;20639;-79
2021/12/19 01:57:01;;;;;;;20.97;9.50;;;;;;;;;;5039236;28;20237;-80
2021/12/19 01:59:28;;;;;;;18.00;9.47;;;;;;;;;;5039347;28;20240;-80
2021/12/19 02:01:57;;;;;;;19.17;10.07;;;;;;;;;;5040118;28;20203;-80
2021/12/19 02:04:29;;;;;;;16.77;9.47;;;;;;;;;;5039656;28;20237;-80
2021/12/19 02:06:57;;;;;;;18.53;10.63;;;;;;;;;;5037768;28;20206;-80
2021/12/19 02:09:25;;;;;;;18.17;10.07;;;;;;;;;;5039850;28;20248;-80
2021/12/19 02:11:52;;;;;;;18.90;10.40;;;;;;;;;;5040202;28;20202;-80
2021/12/19 02:14:20;;;;;;;18.33;9.60;;;;;;;;;;5039388;28;20611;-80
2021/12/19 02:16:48;;;;;;;19.00;10.07;;;;;;;;;;5039853;28;20221;-79
2021/12/19 02:19:15;;;;;;;17.30;9.37;;;;;;;;;;5039683;28;20260;-79
2021/12/19 02:21:43;;;;;;;16.90;9.03;;;;;;;;;;5040023;28;20244;-80
2021/12/19 02:24:11;;;;;;;16.70;9.73;;;;;;;;;;5039419;28;20240;-79
2021/12/19 02:26:39;;;;;;;18.83;9.90;;;;;;;;;;5039991;28;20232;-80
2021/12/19 02:29:06;;;;;;;18.83;10.23;;;;;;;;;;5038488;28;20234;-80
2021/12/19 02:31:34;;;;;;;19.47;10.50;;;;;;;;;;5038851;28;20221;-79
2021/12/19 02:34:05;;;;;;;13.87;8.53;;;;;;;;;;5039418;28;20233;-80
2021/12/19 02:36:47;;;;;;;17.80;10.40;;;;;;;;;;5040509;28;20244;-79
2021/12/19 02:39:39;;;;;;;18.27;10.43;;;;;;;;;;5039146;28;20247;-80
2021/12/19 02:50:24;;;;;;;20.57;10.87;;;;;;;;;;5036029;28;20280;-78
2021/12/19 02:52:52;;;;;;;20.60;11.30;;;;;;;;;;5035881;28;20210;-79
2021/12/19 02:55:20;;;;;;;22.80;11.30;;;;;;;;;;5036092;28;20264;-78
2021/12/19 02:57:49;;;;;;;21.93;11.10;;;;;;;;;;5036871;28;20605;-78
2021/12/19 03:00:22;;;;;;;21.33;11.00;;;;;;;;;;5035853;28;20249;-78
2021/12/19 03:02:49;;;;;;;20.37;11.00;;;;;;;;;;5036831;28;20218;-78
2021/12/19 03:05:16;;;;;;;19.50;10.53;;;;;;;;;;5036023;28;20242;-78
2021/12/19 03:07:44;;;;;;;24.33;11.43;;;;;;;;;;5037115;28;20206;-78
2021/12/19 03:10:40;;;;;;;18.97;10.40;;;;;;;;;;5034964;28;20733;-76
2021/12/19 03:13:19;;;;;;;19.80;11.13;;;;;;;;;;5032631;28;20210;-76
2021/12/19 03:18:31;;;;;;;20.53;10.40;;;;;;;;;;5032131;28;20281;-77
2021/12/19 03:20:58;;;;;;;19.80;10.90;;;;;;;;;;5032910;28;20240;-76
2021/12/19 03:23:26;;;;;;;20.30;10.97;;;;;;;;;;5032147;28;20225;-76
2021/12/19 03:25:53;;;;;;;23.47;10.87;;;;;;;;;;5032458;28;20701;-76
2021/12/19 03:28:21;;;;;;;21.70;10.30;;;;;;;;;;5032350;28;20203;-76
2021/12/19 03:30:49;;;;;;;24.13;10.37;;;;;;;;;;5032771;28;20233;-76
2021/12/19 03:33:17;;;;;;;21.13;11.03;;;;;;;;;;5032661;28;20214;-77
2021/12/19 03:35:44;;;;;;;25.37;11.20;;;;;;;;;;5032522;28;20230;-76
2021/12/19 03:38:12;;;;;;;22.47;11.20;;;;;;;;;;5032592;28;20213;-77
2021/12/19 03:40:43;;;;;;;21.23;11.70;;;;;;;;;;5030751;28;20619;-76
2021/12/19 03:43:13;;;;;;;20.73;10.93;;;;;;;;;;5032103;28;20191;-76
2021/12/19 03:45:42;;;;;;;19.17;11.20;;;;;;;;;;5031489;28;20234;-76
2021/12/19 03:48:12;;;;;;;24.00;11.70;;;;;;;;;;5032351;28;20209;-76
2021/12/19 03:50:42;;;;;;;24.33;12.27;;;;;;;;;;5031539;28;20319;-78
2021/12/19 03:53:10;;;;;;;26.97;10.93;;;;;;;;;;5032157;28;20212;-78
2021/12/19 03:55:37;;;;;;;21.20;11.17;;;;;;;;;;5031819;28;20242;-77
2021/12/19 03:58:04;;;;;;;23.87;11.80;;;;;;;;;;5032265;28;20224;-76
2021/12/19 04:00:31;;;;;;;21.73;11.07;;;;;;;;;;5031450;28;20261;-76
2021/12/19 04:03:03;;;;;;;18.63;10.93;;;;;;;;;;5032278;28;20202;-76
2021/12/19 04:05:30;;;;;;;20.87;11.17;;;;;;;;;;5031720;28;20230;-77
2021/12/19 04:07:57;;;;;;;22.90;11.07;;;;;;;;;;5032211;28;20758;-76
2021/12/19 04:10:27;;;;;;;19.50;11.03;;;;;;;;;;5031342;28;20635;-77
2021/12/19 04:12:54;;;;;;;15.10;9.53;;;;;;;;;;5031973;28;20226;-77
2021/12/19 04:15:21;;;;;;;21.50;11.43;;;;;;;;;;5031331;28;20308;-77
2021/12/19 04:17:48;;;;;;;21.77;10.77;;;;;;;;;;5032106;28;20218;-77
2021/12/19 04:20:18;;;;;;;18.07;11.50;;;;;;;;;;5031170;28;20241;-77
2021/12/19 04:22:45;;;;;;;22.60;11.97;;;;;;;;;;5031806;28;20296;-77
2021/12/19 04:25:12;;;;;;;24.50;12.60;;;;;;;;;;5031514;28;20241;-78
2021/12/19 04:27:40;;;;;;;21.27;11.30;;;;;;;;;;5032930;28;20207;-78
2021/12/19 04:30:07;;;;;;;21.27;12.80;;;;;;;;;;5031739;28;20704;-79
2021/12/19 04:32:40;;;;;;;20.77;12.47;;;;;;;;;;5032260;28;20598;-78
2021/12/19 04:35:08;;;;;;;21.20;11.60;;;;;;;;;;5031523;28;20241;-76
2021/12/19 04:38:06;;;;;;;21.33;12.77;;;;;;;;;;5032027;28;20275;-77
2021/12/19 04:40:39;;;;;;;26.90;12.60;;;;;;;;;;5031144;28;20705;-77
2021/12/19 04:51:49;;;;;;;23.20;12.33;;;;;;;;;;5031963;28;20228;-77
2021/12/19 04:54:29;;;;;;;24.50;13.07;;;;;;;;;;5035205;28;20228;-78
2021/12/19 04:57:08;;;;;;;21.27;11.73;;;;;;;;;;5035880;28;20604;-77
2021/12/19 04:59:55;;;;;;;23.77;12.60;;;;;;;;;;5034938;28;20256;-77
2021/12/19 05:02:46;;;;;;;21.10;11.53;;;;;;;;;;5015544;28;20919;-77
2021/12/19 05:16:12;;;;;;;18.43;10.73;;;;;;;;;;5015292;28;20194;-77
2021/12/19 05:18:41;;;;;;;21.07;11.73;;;;;;;;;;5014972;28;20256;-77
2021/12/19 05:21:15;;;;;;;22.73;12.40;;;;;;;;;;5015585;28;20303;-77
2021/12/19 05:24:04;;;;;;;25.43;12.53;;;;;;;;;;5014873;28;20242;-78
2021/12/19 05:26:32;;;;;;;22.37;12.03;;;;;;;;;;5015477;28;20199;-77
2021/12/19 05:28:59;;;;;;;26.10;13.30;;;;;;;;;;5014877;28;20256;-78
2021/12/19 05:31:26;;;;;;;26.80;13.37;;;;;;;;;;5015119;28;20214;-77
2021/12/19 05:33:53;;;;;;;24.90;14.30;;;;;;;;;;5014836;28;20242;-77
2021/12/19 05:47:23;;;;;;;24.70;12.60;;;;;;;;;;5015106;28;20191;-77
2021/12/19 05:49:50;;;;;;;24.90;14.03;;;;;;;;;;5014536;28;20276;-77
2021/12/19 05:52:17;;;;;;;24.37;12.93;;;;;;;;;;5015035;28;20231;-77
2021/12/19 05:54:45;;;;;;;22.37;12.10;;;;;;;;;;5014153;28;20633;-77
2021/12/19 05:57:15;;;;;;;25.20;12.77;;;;;;;;;;5014636;28;20217;-77
2021/12/19 05:59:42;;;;;;;23.50;13.27;;;;;;;;;;5014265;28;20243;-78
2021/12/19 06:02:09;;;;;;;23.27;13.97;;;;;;;;;;5014462;28;20261;-78
2021/12/19 06:04:36;;;;;;;21.90;13.10;;;;;;;;;;5013132;28;20245;-78
2021/12/19 06:07:03;;;;;;;24.77;13.43;;;;;;;;;;5014761;28;20622;-77
2021/12/19 06:09:30;;;;;;;21.17;13.40;;;;;;;;;;5013835;28;20246;-78
2021/12/19 06:11:57;;;;;;;23.20;12.70;;;;;;;;;;5014923;28;20774;-77
2021/12/19 06:14:31;;;;;;;25.03;13.90;;;;;;;;;;5013970;28;20260;-77
2021/12/19 06:16:58;;;;;;;21.27;12.27;;;;;;;;;;5014754;28;20203;-77
2021/12/19 06:19:25;;;;;;;23.30;13.77;;;;;;;;;;5013710;28;20693;-78
2021/12/19 06:21:52;;;;;;;22.97;12.40;;;;;;;;;;5014684;28;20234;-77
2021/12/19 06:24:19;;;;;;;26.10;13.17;;;;;;;;;;5013982;28;20249;-78
2021/12/19 06:26:46;;;;;;;21.60;12.50;;;;;;;;;;5014667;28;20214;-77
2021/12/19 06:29:13;;;;;;;23.57;12.90;;;;;;;;;;5013885;28;20291;-77
2021/12/19 06:31:42;;;;;;;24.00;12.77;;;;;;;;;;5014170;28;20215;-77
2021/12/19 06:34:09;;;;;;;25.33;13.97;;;;;;;;;;5013389;28;20239;-77
2021/12/19 06:36:37;;;;;;;27.70;13.50;;;;;;;;;;5014461;28;20284;-77
2021/12/19 06:39:04;;;;;;;21.23;12.70;;;;;;;;;;5013224;28;20238;-78
2021/12/19 06:41:31;;;;;;;19.67;12.07;;;;;;;;;;5013959;28;20211;-77
2021/12/19 06:43:58;;;;;;;18.83;12.00;;;;;;;;;;5013645;28;20238;-78
2021/12/19 06:46:25;;;;;;;22.10;12.90;;;;;;;;;;5014040;28;20210;-77
2021/12/19 06:48:53;;;;;;;23.43;13.13;;;;;;;;;;5013532;28;20241;-79
2021/12/19 06:51:21;;;;;;;21.77;13.33;;;;;;;;;;5014021;28;20230;-80
2021/12/19 06:53:48;;;;;;;22.50;14.67;;;;;;;;;;5013216;28;20237;-78
2021/12/19 06:56:16;;;;;;;21.50;12.53;;;;;;;;;;5013486;28;20710;-77
2021/12/19 06:58:43;;;;;;;17.97;12.03;;;;;;;;;;5013419;28;20241;-78
2021/12/19 07:01:10;;;;;;;21.00;12.03;;;;;;;;;;5013545;28;20231;-78
2021/12/19 07:03:37;;;;;;;20.97;12.97;;;;;;;;;;5013055;28;20215;-77
2021/12/19 07:06:05;;;;;;;20.93;12.00;;;;;;;;;;5013651;28;20218;-75
2021/12/19 07:08:32;;;;;;;22.17;13.13;;;;;;;;;;5013018;28;20219;-75
2021/12/19 07:10:59;;;;;;;21.53;12.87;;;;;;;;;;5013020;28;20684;-75
2021/12/19 07:13:26;;;;;;;20.57;12.73;;;;;;;;;;5012895;28;20211;-75
2021/12/19 07:15:54;;;;;;;22.10;12.13;;;;;;;;;;5013275;28;20215;-75
2021/12/19 07:18:21;;;;;;;19.53;12.47;;;;;;;;;;5012591;28;20670;-75
2021/12/19 07:20:48;;;;;;;21.93;14.47;;;;;;;;;;5013080;28;20239;-75
2021/12/19 07:23:17;;;;;;;20.50;12.57;;;;;;;;;;5013169;28;20211;-76
2021/12/19 07:25:44;;;;;;;21.27;13.63;;;;;;;;;;5012914;28;20230;-75
2021/12/19 07:28:12;;;;;;;25.27;13.20;;;;;;;;;;5012699;28;20745;-75
2021/12/19 07:30:40;;;;;;;23.03;13.33;;;;;;;;;;5012550;28;20239;-76
2021/12/19 07:33:08;;;;;;;24.10;13.77;;;;;;;;;;5012553;28;20713;-75
2021/12/19 07:35:38;;;;;;;21.80;13.23;;;;;;;;;;5012519;28;20246;-75
2021/12/19 07:38:05;;;;;;;20.60;13.10;;;;;;;;;;5013087;28;20288;-75
2021/12/19 07:40:36;;;;;;;22.53;13.13;;;;;;;;;;5012440;28;20239;-75
2021/12/19 07:43:03;;;;;;;16.23;12.10;;;;;;;;;;5012550;28;20211;-75
2021/12/19 07:45:31;;;;;;;22.83;12.97;;;;;;;;;;5011995;28;20288;-75
2021/12/19 07:47:58;;;;;;;20.67;12.83;;;;;;;;;;5012460;28;20814;-76
2021/12/19 07:50:26;;;;;;;17.77;13.07;;;;;;;;;;5012774;28;20250;-75
2021/12/19 07:52:53;;;;;;;19.23;12.27;;;;;;;;;;5012671;28;20578;-75
2021/12/19 07:55:21;;;;;;;20.67;12.17;;;;;;;;;;5011796;28;20242;-75
2021/12/19 07:57:49;;;;;;;17.47;11.90;;;;;;;;;;5012545;28;20267;-75
2021/12/19 08:00:19;;;;;;;19.70;12.83;;;;;;;;;;5011829;28;20244;-76
2021/12/19 08:02:46;;;;;;;19.80;12.30;;;;;;;;;;5012445;28;20683;-75
2021/12/19 08:05:14;;;;;;;19.97;12.40;;;;;;;;;;5011917;28;20235;-75
2021/12/19 08:07:42;;;;;;;19.10;12.13;;;;;;;;;;5012490;28;20213;-75
2021/12/19 08:10:15;;;;;;;16.97;11.97;;;;;;;;;;5011568;28;20653;-75
2021/12/19 08:12:42;;;;;;;18.97;11.23;;;;;;;;;;5012660;28;20560;-74
2021/12/19 08:15:11;;;;;;;20.27;13.40;;;;;;;;;;5011600;28;20317;-75
2021/12/19 08:17:39;;;;;;;16.40;12.10;;;;;;;;;;5012590;28;20206;-74
2021/12/19 08:20:09;;;;;;;19.90;12.33;;;;;;;;;;5011393;28;20246;-74
2021/12/19 08:22:36;;;;;;;16.50;11.40;;;;;;;;;;5012236;28;20206;-75
2021/12/19 08:25:03;;;;;;;20.00;12.63;;;;;;;;;;5011762;28;20743;-77
2021/12/19 08:27:33;;;;;;;15.90;11.40;;;;;;;;;;5011983;28;20207;-75
2021/12/19 08:30:00;;;;;;;18.53;12.70;;;;;;;;;;5011519;28;20235;-75
2021/12/19 08:32:28;;;;;;;21.77;13.67;;;;;;;;;;5012532;28;20214;-75
2021/12/19 08:34:55;;;;;;;17.03;11.37;;;;;;;;;;5011818;28;20245;-76
2021/12/19 08:37:22;;;;;;;19.97;13.07;;;;;;;;;;5012020;28;20210;-75
2021/12/19 08:39:49;;;;;;;22.40;14.43;;;;;;;;;;5011681;28;20239;-75
2021/12/19 08:42:16;;;;;;;18.00;12.33;;;;;;;;;;5012043;28;20203;-77
2021/12/19 08:44:43;;;;;;;18.80;12.47;;;;;;;;;;5011602;28;20234;-77
2021/12/19 08:47:11;;;;;;;19.80;12.73;;;;;;;;;;5012454;28;20216;-76
2021/12/19 08:49:40;;;;;;;19.40;12.87;;;;;;;;;;5011950;28;20239;-77
2021/12/19 08:52:08;;;;;;;19.97;13.50;;;;;;;;;;5011946;28;20297;-76
2021/12/19 08:54:35;;;;;;;20.43;13.03;;;;;;;;;;5011511;28;20262;-76
2021/12/19 08:57:02;;;;;;;18.73;12.83;;;;;;;;;;5011853;28;20222;-76
2021/12/19 08:59:29;;;;;;;19.10;12.37;;;;;;;;;;5011323;28;20720;-76
2021/12/19 09:01:58;;;;;;;21.60;14.10;;;;;;;;;;5017508;28;20226;-77
2021/12/19 09:04:25;;;;;;;21.07;13.43;;;;;;;;;;5030815;28;20699;-76
2021/12/19 09:06:56;;;;;;;21.20;12.87;;;;;;;;;;5031279;28;20666;-77
2021/12/19 09:09:23;;;;;;;21.10;12.80;;;;;;;;;;5030706;28;20241;-76
2021/12/19 09:11:50;;;;;;;18.97;13.03;;;;;;;;;;5078892;23;20374;-84
2021/12/19 09:14:17;;;;;;;20.73;13.40;;;;;;;;;;5057322;28;20266;-84
2021/12/19 09:16:44;;;;;;;21.70;13.63;;;;;;;;;;5067702;28;20214;-83
2021/12/19 09:19:11;;;;;;;21.03;13.20;;;;;;;;;;5067515;28;20230;-83
2021/12/19 09:21:38;;;;;;;23.47;13.30;;;;;;;;;;5067730;28;20288;-82
2021/12/19 09:24:07;;;;;;;20.10;11.80;;;;;;;;;;5065837;28;20230;-83
2021/12/19 09:26:34;;;;;;;21.33;12.83;;;;;;;;;;5060826;28;20252;-83
2021/12/19 09:29:01;;;;;;;19.00;12.90;;;;;;;;;;5068546;28;20233;-84
2021/12/19 09:31:29;;;;;;;19.90;12.53;;;;;;;;;;5068432;28;20293;-82
2021/12/19 09:33:56;;;;;;;19.33;12.03;;;;;;;;;;5067303;28;20229;-84
2021/12/19 09:36:23;;;;;;;20.83;12.60;;;;;;;;;;5068484;28;20214;-83
2021/12/19 09:38:50;;;;;;;20.00;13.20;;;;;;;;;;5068575;28;20232;-82
2021/12/19 09:41:28;;;;;;;19.60;12.37;;;;;;;;;;5071460;28;20230;-84
2021/12/19 09:43:56;;;;;;;24.17;13.10;;;;;;;;;;5070425;28;20256;-83
2021/12/19 09:46:28;;;;;;;18.40;11.93;;;;;;;;;;5071403;28;20217;-84
2021/12/19 09:48:55;;;;;;;19.50;12.47;;;;;;;;;;5070645;28;20289;-84
2021/12/19 09:51:22;;;;;;;21.40;12.60;;;;;;;;;;5070735;28;20698;-83
2021/12/19 09:53:49;;;;;;;20.87;12.87;;;;;;;;;;5070119;28;20667;-84
2021/12/19 09:56:16;;;;;;;21.20;13.00;;;;;;;;;;5066704;28;20290;-82
2021/12/19 09:58:44;;;;;;;20.20;13.70;;;;;;;;;;5068547;28;20229;-82
2021/12/19 10:01:12;;;;;;;17.27;12.07;;;;;;;;;;5070362;28;20237;-83
2021/12/19 10:03:40;;;;;;;21.57;13.17;;;;;;;;;;5069386;28;20233;-83
2021/12/19 10:06:14;;;;;;;22.93;14.07;;;;;;;;;;5069452;28;20209;-82
2021/12/19 10:08:41;;;;;;;19.13;13.23;;;;;;;;;;5070803;28;20236;-83
2021/12/19 10:11:30;;;;;;;22.50;13.73;;;;;;;;;;5070929;28;20244;-83
2021/12/19 10:13:58;;;;;;;20.87;12.67;;;;;;;;;;5070687;28;20289;-84
2021/12/19 10:16:27;;;;;;;20.23;14.03;;;;;;;;;;5069380;28;20218;-84
2021/12/19 10:18:54;;;;;;;19.67;12.37;;;;;;;;;;5069940;28;20721;-84
2021/12/19 10:21:22;;;;;;;18.23;10.90;;;;;;;;;;5070795;28;20244;-84
2021/12/19 10:23:49;;;;;;;20.77;12.47;;;;;;;;;;5069683;28;20232;-84
2021/12/19 10:26:16;;;;;;;20.63;12.63;;;;;;;;;;5069256;28;20267;-84
2021/12/19 10:28:50;;;;;;;21.53;12.83;;;;;;;;;;5070732;28;20234;-82
2021/12/19 10:31:19;;;;;;;20.77;13.07;;;;;;;;;;5071945;28;20233;-82
2021/12/19 10:33:46;;;;;;;20.43;12.73;;;;;;;;;;5071183;28;20756;-82
2021/12/19 10:36:13;;;;;;;19.30;12.70;;;;;;;;;;5071401;28;20213;-82
2021/12/19 10:38:42;;;;;;;21.57;13.40;;;;;;;;;;5067713;28;20233;-82
2021/12/19 10:41:11;;;;;;;23.00;13.87;;;;;;;;;;5066306;28;20237;-82
2021/12/19 10:43:43;;;;;;;23.60;12.77;;;;;;;;;;5067490;28;20241;-82
2021/12/19 10:46:10;;;;;;;21.87;13.77;;;;;;;;;;5070825;28;20206;-82
2021/12/19 10:48:39;;;;;;;21.10;13.73;;;;;;;;;;5069606;28;20210;-82
2021/12/19 10:51:08;;;;;;;24.27;13.13;;;;;;;;;;5069725;28;20233;-82
2021/12/19 10:53:37;;;;;;;14.70;10.10;;;;;;;;;;5069723;28;20206;-82
2021/12/19 10:56:05;;;;;;;18.63;12.30;;;;;;;;;;5068900;28;20202;-83
2021/12/19 10:58:34;;;;;;;21.50;12.73;;;;;;;;;;5069692;28;20206;-83
2021/12/19 11:01:06;;;;;;;22.40;13.50;;;;;;;;;;5068672;28;20261;-82
2021/12/19 11:03:34;;;;;;;20.53;12.67;;;;;;;;;;5053064;28;20198;-83
2021/12/19 11:06:13;;;;;;;23.53;14.07;;;;;;;;;;5053003;28;20214;-82
2021/12/19 11:08:41;;;;;;;23.37;13.80;;;;;;;;;;5052433;28;20237;-83
2021/12/19 11:11:09;;;;;;;20.37;12.50;;;;;;;;;;5053887;28;20303;-83
2021/12/19 11:13:36;;;;;;;22.70;12.83;;;;;;;;;;5055151;28;20221;-83
2021/12/19 11:16:03;;;;;;;20.43;12.97;;;;;;;;;;5058255;28;20550;-83
2021/12/19 11:18:31;;;;;;;20.93;13.13;;;;;;;;;;5059546;28;20210;-82
2021/12/19 11:20:58;;;;;;;19.67;12.50;;;;;;;;;;5063379;28;20237;-83
2021/12/19 11:23:27;;;;;;;24.07;12.93;;;;;;;;;;5064216;28;20217;-82
2021/12/19 11:25:55;;;;;;;22.43;13.80;;;;;;;;;;5066836;28;20214;-82
2021/12/19 11:28:22;;;;;;;22.07;13.37;;;;;;;;;;5065123;28;20207;-83
2021/12/19 11:30:49;;;;;;;20.83;13.10;;;;;;;;;;5067083;28;20229;-83
2021/12/19 11:33:24;;;;;;;20.90;12.33;;;;;;;;;;5061663;28;20206;-83
2021/12/19 11:35:51;;;;;;;22.77;13.37;;;;;;;;;;5054067;28;20222;-83
2021/12/19 11:38:20;;;;;;;21.70;13.80;;;;;;;;;;5065269;28;20212;-83
2021/12/19 11:40:50;;;;;;;23.80;14.70;;;;;;;;;;5066486;28;20234;-83
2021/12/19 11:43:17;;;;;;;21.13;13.33;;;;;;;;;;5062269;28;20239;-83
2021/12/19 11:45:51;;;;;;;22.30;14.33;;;;;;;;;;5065290;28;20233;-82
2021/12/19 11:48:23;;;;;;;23.83;14.57;;;;;;;;;;5060719;28;20249;-83
2021/12/19 11:50:52;;;;;;;22.23;12.70;;;;;;;;;;5064003;28;20222;-83
2021/12/19 11:53:27;;;;;;;23.13;14.93;;;;;;;;;;5065964;28;20202;-83
2021/12/19 11:55:58;;;;;;;22.30;12.37;;;;;;;;;;5067316;28;20209;-81
2021/12/19 11:58:30;;;;;;;23.47;14.23;;;;;;;;;;5061275;28;20233;-82
2021/12/19 12:00:58;;;;;;;22.83;13.73;;;;;;;;;;5062292;28;20631;-83
2021/12/19 12:03:27;;;;;;;23.87;14.50;;;;;;;;;;5063131;28;20534;-82
2021/12/19 12:05:54;;;;;;;25.90;14.67;;;;;;;;;;5063555;28;20206;-82
2021/12/19 12:08:22;;;;;;;25.83;13.10;;;;;;;;;;5064333;28;20217;-83
2021/12/19 12:11:08;;;;;;;23.97;13.10;;;;;;;;;;5064894;28;20265;-82
2021/12/19 12:13:38;;;;;;;23.03;13.47;;;;;;;;;;5066462;28;20292;-83
2021/12/19 12:16:24;;;;;;;21.60;12.70;;;;;;;;;;5065332;28;20372;-83
2021/12/19 12:18:55;;;;;;;23.20;12.23;;;;;;;;;;5066132;28;20249;-82
2021/12/19 12:21:28;;;;;;;25.87;14.43;;;;;;;;;;5065334;28;20663;-83
2021/12/19 12:23:57;;;;;;;22.13;12.83;;;;;;;;;;5064542;28;20226;-83
2021/12/19 12:26:26;;;;;;;20.13;13.13;;;;;;;;;;5064870;28;20273;-83
2021/12/19 12:28:54;;;;;;;20.43;12.60;;;;;;;;;;5067258;28;20234;-83
2021/12/19 12:31:23;;;;;;;21.73;12.57;;;;;;;;;;5067984;28;20218;-83
2021/12/19 12:33:51;;;;;;;22.10;13.57;;;;;;;;;;5066059;28;20229;-82
2021/12/19 12:36:18;;;;;;;19.23;12.30;;;;;;;;;;5066864;28;20217;-82
2021/12/19 12:38:51;;;;;;;19.20;11.53;;;;;;;;;;5063681;28;20229;-83
2021/12/19 12:41:28;;;;;;;23.20;12.03;;;;;;;;;;5064428;28;20234;-82
2021/12/19 12:43:58;;;;;;;22.37;12.37;;;;;;;;;;5064405;28;20236;-82
2021/12/19 12:46:26;;;;;;;21.33;11.73;;;;;;;;;;5064981;28;20210;-82
2021/12/19 12:48:57;;;;;;;23.03;12.40;;;;;;;;;;5063340;28;20234;-82
2021/12/19 12:51:26;;;;;;;20.20;11.33;;;;;;;;;;5063779;28;20241;-82
2021/12/19 12:53:54;;;;;;;18.40;11.03;;;;;;;;;;5062687;28;20252;-82
2021/12/19 12:56:22;;;;;;;22.30;12.40;;;;;;;;;;5064413;28;20269;-82
2021/12/19 12:58:51;;;;;;;20.20;11.97;;;;;;;;;;5063503;28;20230;-82
2021/12/19 13:01:24;;;;;;;19.83;12.17;;;;;;;;;;5064457;28;20265;-82
2021/12/19 13:04:05;;;;;;;26.23;11.60;;;;;;;;;;5064353;28;20765;-82
2021/12/19 13:06:39;;;;;;;19.70;12.33;;;;;;;;;;5064581;28;20209;-82
2021/12/19 13:09:14;;;;;;;21.17;12.00;;;;;;;;;;5063871;28;20347;-82
2021/12/19 13:11:41;;;;;;;18.73;12.00;;;;;;;;;;5064622;28;20677;-82
2021/12/19 13:14:13;;;;;;;20.27;11.30;;;;;;;;;;5065931;28;20225;-82
2021/12/19 13:16:48;;;;;;;18.93;11.20;;;;;;;;;;5066752;28;20240;-82
2021/12/19 13:19:34;;;;;;;18.47;11.27;;;;;;;;;;5064606;28;20229;-83
2021/12/19 13:22:01;;;;;;;20.77;11.87;;;;;;;;;;5044500;28;20614;-82
2021/12/19 13:24:30;;;;;;;17.83;10.70;;;;;;;;;;5056743;28;20230;-83
2021/12/19 13:27:04;;;;;;;19.53;12.73;;;;;;;;;;5065573;28;20206;-82
2021/12/19 13:29:31;;;;;;;20.90;11.67;;;;;;;;;;5064027;28;20229;-82
2021/12/19 13:32:13;;;;;;;19.07;10.73;;;;;;;;;;5065726;28;20217;-83
2021/12/19 13:34:42;;;;;;;18.83;11.40;;;;;;;;;;5045807;28;20321;-83
2021/12/19 13:37:09;;;;;;;17.50;10.90;;;;;;;;;;5049421;28;20198;-83
2021/12/19 13:39:36;;;;;;;17.73;11.27;;;;;;;;;;5067054;28;20232;-82
2021/12/19 13:42:07;;;;;;;17.40;11.10;;;;;;;;;;5066020;28;20268;-83
2021/12/19 13:44:34;;;;;;;18.53;11.57;;;;;;;;;;5064417;28;20639;-82
2021/12/19 13:47:09;;;;;;;21.60;12.20;;;;;;;;;;5065136;28;20245;-82
2021/12/19 13:49:37;;;;;;;22.50;12.50;;;;;;;;;;5067235;28;20232;-84
2021/12/19 13:52:06;;;;;;;18.93;11.03;;;;;;;;;;5063872;28;20222;-84
2021/12/19 13:54:36;;;;;;;17.83;9.93;;;;;;;;;;5065985;28;20629;-85
2021/12/19 13:57:04;;;;;;;18.40;11.10;;;;;;;;;;5057378;28;20206;-86
2021/12/19 13:59:31;;;;;;;21.30;10.43;;;;;;;;;;5054363;28;20230;-86
2021/12/19 14:01:59;;;;;;;16.83;11.33;;;;;;;;;;5054838;28;20233;-86
2021/12/19 14:04:28;;;;;;;19.50;11.60;;;;;;;;;;5059327;28;20256;-86
2021/12/19 14:06:58;;;;;;;15.20;9.67;;;;;;;;;;5054088;28;20201;-86
2021/12/19 14:09:26;;;;;;;14.80;9.83;;;;;;;;;;5052884;28;20241;-87
2021/12/19 14:11:56;;;;;;;15.63;9.40;;;;;;;;;;5053563;28;20229;-87
2021/12/19 14:14:26;;;;;;;16.23;10.20;;;;;;;;;;5052977;28;20312;-87
2021/12/19 14:16:59;;;;;;;15.60;9.13;;;;;;;;;;5053972;28;20661;-87
2021/12/19 14:19:26;;;;;;;15.10;9.43;;;;;;;;;;5047134;28;20681;-87
2021/12/19 14:21:56;;;;;;;13.63;9.20;;;;;;;;;;5058580;28;20226;-87
2021/12/19 14:24:36;;;;;;;16.03;10.10;;;;;;;;;;5053050;28;20238;-87
2021/12/19 14:27:11;;;;;;;17.33;10.47;;;;;;;;;;5044104;28;20260;-87
2021/12/19 14:29:39;;;;;;;16.17;9.23;;;;;;;;;;5052649;28;20256;-87
2021/12/19 14:32:09;;;;;;;13.83;9.30;;;;;;;;;;5056332;28;20214;-87
2021/12/19 14:34:37;;;;;;;15.60;10.30;;;;;;;;;;5053841;28;20259;-87
2021/12/19 14:37:16;;;;;;;14.73;9.73;;;;;;;;;;5053955;28;20198;-86
2021/12/19 14:39:57;;;;;;;16.43;9.87;;;;;;;;;;5054858;28;20240;-86
2021/12/19 14:42:28;;;;;;;13.77;9.43;;;;;;;;;;5051029;28;20222;-87
2021/12/19 14:44:56;;;;;;;13.93;9.23;;;;;;;;;;5052608;28;20671;-87
2021/12/19 14:47:37;;;;;;;13.70;9.20;;;;;;;;;;5044729;28;20209;-85
2021/12/19 14:50:11;;;;;;;12.90;8.43;;;;;;;;;;5052428;28;20202;-85
2021/12/19 14:52:38;;;;;;;16.80;9.17;;;;;;;;;;5044651;28;20681;-86
2021/12/19 14:55:11;;;;;;;14.50;8.80;;;;;;;;;;5052474;28;20234;-85
2021/12/19 14:57:38;;;;;;;15.03;9.33;;;;;;;;;;5053423;28;20207;-85
2021/12/19 15:00:06;;;;;;;13.97;9.13;;;;;;;;;;5051437;28;20259;-86
2021/12/19 15:02:33;;;;;;;12.57;9.20;;;;;;;;;;5045785;28;20230;-84
2021/12/19 15:05:01;;;;;;;14.97;9.57;;;;;;;;;;5053442;28;20238;-85
2021/12/19 15:07:30;;;;;;;13.10;8.93;;;;;;;;;;5056041;28;20214;-84
2021/12/19 15:09:57;;;;;;;13.30;9.07;;;;;;;;;;5052782;28;20232;-83
2021/12/19 15:12:26;;;;;;;11.67;9.20;;;;;;;;;;5049524;23;20634;-76
2021/12/19 15:14:53;;;;;;;15.40;10.73;;;;;;;;;;5029423;28;20241;-77